sensor_id;sensor_type;location;lat;lon;timestamp;pressure;altitude;pressure_sealevel;temperature;humidity
60099;BME280;62818;49.394;8.686;2023-04-28T00:00:23;100164.38;;;15.55;47.38
60099;BME280;62818;49.394;8.686;2023-04-28T00:01:24;100174.47;;;15.53;47.50
60099;BME280;62818;49.394;8.686;2023-04-28T00:02:24;100175.06;;;15.55;47.29
60099;BME280;62818;49.394;8.686;2023-04-28T00:03:26;100165.81;;;15.58;47.20
60099;BME280;62818;49.394;8.686;2023-04-28T00:04:27;100170.34;;;15.51;47.62
60099;BME280;62818;49.394;8.686;2023-04-28T00:05:28;100166.44;;;15.53;47.60
60099;BME280;62818;49.394;8.686;2023-04-28T00:06:28;100178.75;;;15.61;47.96
60099;BME280;62818;49.394;8.686;2023-04-28T00:07:30;100167.47;;;15.59;47.64
60099;BME280;62818;49.394;8.686;2023-04-28T00:08:30;100161.53;;;15.57;48.33
60099;BME280;62818;49.394;8.686;2023-04-28T00:09:31;100163.78;;;15.53;48.67
60099;BME280;62818;49.394;8.686;2023-04-28T00:10:31;100160.34;;;15.46;49.48
60099;BME280;62818;49.394;8.686;2023-04-28T00:11:33;100160.72;;;15.50;48.94
60099;BME280;62818;49.394;8.686;2023-04-28T00:12:33;100158.47;;;15.47;49.56
60099;BME280;62818;49.394;8.686;2023-04-28T00:13:34;100164.59;;;15.54;49.28
60099;BME280;62818;49.394;8.686;2023-04-28T00:14:34;100152.09;;;15.48;49.65
60099;BME280;62818;49.394;8.686;2023-04-28T00:15:34;100149.03;;;15.38;50.24
60099;BME280;62818;49.394;8.686;2023-04-28T00:16:35;100161.75;;;15.49;49.42
60099;BME280;62818;49.394;8.686;2023-04-28T00:17:35;100144.13;;;15.35;50.74
60099;BME280;62818;49.394;8.686;2023-04-28T00:18:36;100139.41;;;15.30;50.68
60099;BME280;62818;49.394;8.686;2023-04-28T00:19:36;100142.06;;;15.37;50.46
60099;BME280;62818;49.394;8.686;2023-04-28T00:20:37;100140.81;;;15.46;49.84
60099;BME280;62818;49.394;8.686;2023-04-28T00:21:38;100141.84;;;15.45;49.68
60099;BME280;62818;49.394;8.686;2023-04-28T00:22:39;100135.91;;;15.30;51.20
60099;BME280;62818;49.394;8.686;2023-04-28T00:23:39;100137.97;;;15.28;51.81
60099;BME280;62818;49.394;8.686;2023-04-28T00:24:40;100131.88;;;15.14;53.49
60099;BME280;62818;49.394;8.686;2023-04-28T00:25:41;100132.28;;;15.05;54.55
60099;BME280;62818;49.394;8.686;2023-04-28T00:26:41;100126.97;;;14.98;56.13
60099;BME280;62818;49.394;8.686;2023-04-28T00:27:41;100130.22;;;15.20;55.33
60099;BME280;62818;49.394;8.686;2023-04-28T00:28:42;100117.53;;;15.02;56.64
60099;BME280;62818;49.394;8.686;2023-04-28T00:29:42;100123.94;;;14.88;59.50
60099;BME280;62818;49.394;8.686;2023-04-28T00:30:43;100115.09;;;14.94;60.53
60099;BME280;62818;49.394;8.686;2023-04-28T00:31:44;100109.19;;;14.79;63.36
60099;BME280;62818;49.394;8.686;2023-04-28T00:32:44;100113.28;;;14.81;63.21
60099;BME280;62818;49.394;8.686;2023-04-28T00:33:45;100111.84;;;14.79;64.38
60099;BME280;62818;49.394;8.686;2023-04-28T00:34:45;100108.97;;;14.74;66.42
60099;BME280;62818;49.394;8.686;2023-04-28T00:35:45;100113.66;;;14.92;67.08
60099;BME280;62818;49.394;8.686;2023-04-28T00:36:46;100102.81;;;14.87;71.06
60099;BME280;62818;49.394;8.686;2023-04-28T00:37:46;100103.84;;;14.72;73.88
60099;BME280;62818;49.394;8.686;2023-04-28T00:38:47;100102.25;;;14.32;75.59
60099;BME280;62818;49.394;8.686;2023-04-28T00:39:47;100101.22;;;13.94;76.84
60099;BME280;62818;49.394;8.686;2023-04-28T00:40:48;100104.03;;;13.73;77.87
60099;BME280;62818;49.394;8.686;2023-04-28T00:41:48;100099.56;;;13.80;81.29
60099;BME280;62818;49.394;8.686;2023-04-28T00:42:49;100098.91;;;13.65;86.32
60099;BME280;62818;49.394;8.686;2023-04-28T00:43:49;100094.69;;;14.03;83.44
60099;BME280;62818;49.394;8.686;2023-04-28T00:44:50;100093.84;;;14.22;79.72
60099;BME280;62818;49.394;8.686;2023-04-28T00:45:50;100094.84;;;14.21;79.81
60099;BME280;62818;49.394;8.686;2023-04-28T00:46:51;100093.63;;;14.17;82.99
60099;BME280;62818;49.394;8.686;2023-04-28T00:47:53;100093.03;;;14.41;82.30
60099;BME280;62818;49.394;8.686;2023-04-28T00:48:56;100082.34;;;13.95;85.98
60099;BME280;62818;49.394;8.686;2023-04-28T00:49:58;100085.03;;;14.15;86.89
60099;BME280;62818;49.394;8.686;2023-04-28T00:51:01;100081.97;;;14.18;86.69
60099;BME280;62818;49.394;8.686;2023-04-28T00:52:05;100089.72;;;13.87;88.55
60099;BME280;62818;49.394;8.686;2023-04-28T00:53:06;100092.00;;;13.96;86.02
60099;BME280;62818;49.394;8.686;2023-04-28T00:54:07;100081.13;;;13.72;83.57
60099;BME280;62818;49.394;8.686;2023-04-28T00:55:08;100090.13;;;14.10;75.03
60099;BME280;62818;49.394;8.686;2023-04-28T00:56:09;100089.53;;;14.21;74.39
60099;BME280;62818;49.394;8.686;2023-04-28T00:57:10;100088.13;;;14.25;72.48
60099;BME280;62818;49.394;8.686;2023-04-28T00:58:11;100091.00;;;14.30;70.53
60099;BME280;62818;49.394;8.686;2023-04-28T00:59:11;100101.03;;;14.41;67.64
60099;BME280;62818;49.394;8.686;2023-04-28T01:00:14;100098.38;;;14.41;68.76
60099;BME280;62818;49.394;8.686;2023-04-28T01:01:14;100089.16;;;14.31;68.85
60099;BME280;62818;49.394;8.686;2023-04-28T01:02:16;100092.00;;;14.49;68.30
60099;BME280;62818;49.394;8.686;2023-04-28T01:03:17;100093.03;;;14.41;68.84
60099;BME280;62818;49.394;8.686;2023-04-28T01:04:19;100086.47;;;14.11;76.09
60099;BME280;62818;49.394;8.686;2023-04-28T01:05:20;100082.56;;;13.87;75.13
60099;BME280;62818;49.394;8.686;2023-04-28T01:06:22;100085.63;;;14.17;74.49
60099;BME280;62818;49.394;8.686;2023-04-28T01:07:22;100073.75;;;14.20;74.42
60099;BME280;62818;49.394;8.686;2023-04-28T01:08:23;100073.34;;;14.03;76.14
60099;BME280;62818;49.394;8.686;2023-04-28T01:09:28;100071.47;;;14.10;76.44
60099;BME280;62818;49.394;8.686;2023-04-28T01:10:29;100074.56;;;13.94;75.23
60099;BME280;62818;49.394;8.686;2023-04-28T01:11:30;100064.53;;;14.09;72.59
60099;BME280;62818;49.394;8.686;2023-04-28T01:12:30;100067.19;;;14.22;73.03
60099;BME280;62818;49.394;8.686;2023-04-28T01:13:31;100065.53;;;14.08;73.27
60099;BME280;62818;49.394;8.686;2023-04-28T01:14:32;100069.25;;;14.00;72.47
60099;BME280;62818;49.394;8.686;2023-04-28T01:15:33;100063.91;;;14.07;73.34
60099;BME280;62818;49.394;8.686;2023-04-28T01:16:34;100065.97;;;13.98;73.61
60099;BME280;62818;49.394;8.686;2023-04-28T01:17:36;100071.09;;;14.06;68.68
60099;BME280;62818;49.394;8.686;2023-04-28T01:18:37;100061.03;;;14.08;67.95
60099;BME280;62818;49.394;8.686;2023-04-28T01:19:45;100060.00;;;14.42;63.19
60099;BME280;62818;49.394;8.686;2023-04-28T01:20:46;100048.09;;;14.51;62.53
60099;BME280;62818;49.394;8.686;2023-04-28T01:21:46;100055.25;;;14.57;61.95
60099;BME280;62818;49.394;8.686;2023-04-28T01:22:47;100054.03;;;14.60;61.50
60099;BME280;62818;49.394;8.686;2023-04-28T01:23:47;100061.34;;;14.84;59.46
60099;BME280;62818;49.394;8.686;2023-04-28T01:24:48;100058.69;;;14.77;59.59
60099;BME280;62818;49.394;8.686;2023-04-28T01:25:48;100050.66;;;14.91;58.94
60099;BME280;62818;49.394;8.686;2023-04-28T01:26:49;100054.78;;;14.87;59.74
60099;BME280;62818;49.394;8.686;2023-04-28T01:27:49;100049.84;;;14.83;59.50
60099;BME280;62818;49.394;8.686;2023-04-28T01:28:50;100058.63;;;14.97;58.53
60099;BME280;62818;49.394;8.686;2023-04-28T01:29:50;100048.97;;;14.96;58.55
60099;BME280;62818;49.394;8.686;2023-04-28T01:30:51;100040.38;;;14.88;58.82
60099;BME280;62818;49.394;8.686;2023-04-28T01:31:51;100040.19;;;14.89;59.02
60099;BME280;62818;49.394;8.686;2023-04-28T01:32:52;100049.03;;;14.83;59.22
60099;BME280;62818;49.394;8.686;2023-04-28T01:33:52;100047.59;;;14.80;58.96
60099;BME280;62818;49.394;8.686;2023-04-28T01:34:53;100038.78;;;14.80;59.13
60099;BME280;62818;49.394;8.686;2023-04-28T01:35:56;100055.78;;;14.85;59.03
60099;BME280;62818;49.394;8.686;2023-04-28T01:36:58;100044.91;;;14.87;58.92
60099;BME280;62818;49.394;8.686;2023-04-28T01:37:58;100044.88;;;14.94;58.60
60099;BME280;62818;49.394;8.686;2023-04-28T01:38:59;100047.38;;;14.89;58.83
60099;BME280;62818;49.394;8.686;2023-04-28T01:39:59;100054.34;;;14.90;58.57
60099;BME280;62818;49.394;8.686;2023-04-28T01:41:00;100047.97;;;14.91;58.49
60099;BME280;62818;49.394;8.686;2023-04-28T01:42:01;100043.66;;;14.90;58.38
60099;BME280;62818;49.394;8.686;2023-04-28T01:43:02;100039.16;;;14.83;58.78
60099;BME280;62818;49.394;8.686;2023-04-28T01:44:03;100047.59;;;14.80;58.72
60099;BME280;62818;49.394;8.686;2023-04-28T01:45:05;100046.56;;;14.81;59.20
60099;BME280;62818;49.394;8.686;2023-04-28T01:46:06;100038.53;;;14.88;58.71
60099;BME280;62818;49.394;8.686;2023-04-28T01:47:06;100053.72;;;14.88;58.90
60099;BME280;62818;49.394;8.686;2023-04-28T01:48:07;100049.03;;;14.83;59.29
60099;BME280;62818;49.394;8.686;2023-04-28T01:49:07;100056.22;;;14.89;59.15
60099;BME280;62818;49.394;8.686;2023-04-28T01:50:08;100042.63;;;14.91;59.44
60099;BME280;62818;49.394;8.686;2023-04-28T01:51:09;100040.78;;;14.91;58.87
60099;BME280;62818;49.394;8.686;2023-04-28T01:52:09;100045.94;;;14.86;59.61
60099;BME280;62818;49.394;8.686;2023-04-28T01:53:28;100043.81;;;15.01;58.85
60099;BME280;62818;49.394;8.686;2023-04-28T01:55:05;100053.06;;;14.99;59.21
60099;BME280;62818;49.394;8.686;2023-04-28T01:56:06;100046.53;;;14.95;59.57
60099;BME280;62818;49.394;8.686;2023-04-28T01:57:07;100044.47;;;14.90;59.83
60099;BME280;62818;49.394;8.686;2023-04-28T01:58:07;100042.41;;;14.92;60.42
60099;BME280;62818;49.394;8.686;2023-04-28T01:59:08;100053.91;;;14.93;61.24
60099;BME280;62818;49.394;8.686;2023-04-28T02:00:08;100045.50;;;14.96;61.12
60099;BME280;62818;49.394;8.686;2023-04-28T02:01:09;100046.53;;;14.95;61.72
60099;BME280;62818;49.394;8.686;2023-04-28T02:02:10;100046.56;;;14.81;62.93
60099;BME280;62818;49.394;8.686;2023-04-28T02:03:11;100047.41;;;14.75;63.31
60099;BME280;62818;49.394;8.686;2023-04-28T02:04:11;100044.94;;;14.74;64.09
60099;BME280;62818;49.394;8.686;2023-04-28T02:05:12;100043.34;;;14.66;64.72
60099;BME280;62818;49.394;8.686;2023-04-28T02:06:12;100048.25;;;14.63;64.98
60099;BME280;62818;49.394;8.686;2023-04-28T02:07:13;100042.53;;;14.59;65.42
60099;BME280;62818;49.394;8.686;2023-04-28T02:08:13;100042.53;;;14.59;66.53
60099;BME280;62818;49.394;8.686;2023-04-28T02:09:13;100048.25;;;14.63;66.56
60099;BME280;62818;49.394;8.686;2023-04-28T02:10:14;100055.25;;;14.57;67.36
60099;BME280;62818;49.394;8.686;2023-04-28T02:11:15;100046.66;;;14.55;68.17
60099;BME280;62818;49.394;8.686;2023-04-28T02:12:15;100052.41;;;14.52;68.64
60099;BME280;62818;49.394;8.686;2023-04-28T02:13:16;100053.22;;;14.53;69.41
60099;BME280;62818;49.394;8.686;2023-04-28T02:14:17;100054.03;;;14.53;69.40
60099;BME280;62818;49.394;8.686;2023-04-28T02:15:17;100054.03;;;14.53;69.79
60099;BME280;62818;49.394;8.686;2023-04-28T02:16:18;100046.66;;;14.55;69.16
60099;BME280;62818;49.394;8.686;2023-04-28T02:17:19;100052.84;;;14.49;70.68
60099;BME280;62818;49.394;8.686;2023-04-28T02:18:19;100053.63;;;14.43;72.62
60099;BME280;62818;49.394;8.686;2023-04-28T02:19:20;100047.09;;;14.20;73.51
60099;BME280;62818;49.394;8.686;2023-04-28T02:20:20;100045.66;;;14.17;72.36
60099;BME280;62818;49.394;8.686;2023-04-28T02:21:20;100046.50;;;14.04;73.42
60099;BME280;62818;49.394;8.686;2023-04-28T02:22:21;100042.16;;;13.97;75.04
60099;BME280;62818;49.394;8.686;2023-04-28T02:23:22;100046.28;;;13.93;73.83
60099;BME280;62818;49.394;8.686;2023-04-28T02:24:23;100040.75;;;14.01;74.02
60099;BME280;62818;49.394;8.686;2023-04-28T02:25:23;100041.16;;;13.85;76.48
60099;BME280;62818;49.394;8.686;2023-04-28T02:26:24;100048.94;;;13.67;78.61
60099;BME280;62818;49.394;8.686;2023-04-28T02:27:25;100052.41;;;13.48;79.95
60099;BME280;62818;49.394;8.686;2023-04-28T02:28:25;100048.28;;;13.38;82.16
60099;BME280;62818;49.394;8.686;2023-04-28T02:29:25;100052.97;;;13.36;83.09
60099;BME280;62818;49.394;8.686;2023-04-28T02:30:26;100059.94;;;13.37;82.47
60099;BME280;62818;49.394;8.686;2023-04-28T02:31:27;100058.16;;;13.77;81.17
60099;BME280;62818;49.394;8.686;2023-04-28T02:32:27;100051.00;;;13.91;80.47
60099;BME280;62818;49.394;8.686;2023-04-28T02:33:28;100046.69;;;13.77;80.10
60099;BME280;62818;49.394;8.686;2023-04-28T02:34:28;100045.41;;;13.47;82.62
60099;BME280;62818;49.394;8.686;2023-04-28T02:35:29;100045.38;;;13.27;84.97
60099;BME280;62818;49.394;8.686;2023-04-28T02:36:29;100042.50;;;13.35;86.02
60099;BME280;62818;49.394;8.686;2023-04-28T02:37:31;100036.78;;;13.31;85.06
60099;BME280;62818;49.394;8.686;2023-04-28T02:38:32;100041.28;;;13.37;84.25
60099;BME280;62818;49.394;8.686;2023-04-28T02:39:32;100041.66;;;13.15;86.95
60099;BME280;62818;49.394;8.686;2023-04-28T02:40:33;100045.03;;;13.50;85.58
60099;BME280;62818;49.394;8.686;2023-04-28T02:41:33;100045.25;;;13.55;84.22
60099;BME280;62818;49.394;8.686;2023-04-28T02:42:33;100047.03;;;13.28;86.64
60099;BME280;62818;49.394;8.686;2023-04-28T02:43:34;100045.16;;;13.28;89.03
60099;BME280;62818;49.394;8.686;2023-04-28T02:44:36;100045.84;;;13.57;86.63
60099;BME280;62818;49.394;8.686;2023-04-28T02:45:36;100044.72;;;13.18;89.61
60099;BME280;62818;49.394;8.686;2023-04-28T02:46:37;100040.03;;;13.20;90.47
60099;BME280;62818;49.394;8.686;2023-04-28T02:47:37;100029.88;;;13.57;88.51
60099;BME280;62818;49.394;8.686;2023-04-28T02:48:38;100029.16;;;13.15;89.27
60099;BME280;62818;49.394;8.686;2023-04-28T02:49:39;100027.47;;;13.01;91.18
60099;BME280;62818;49.394;8.686;2023-04-28T02:50:40;100028.63;;;12.86;93.03
60099;BME280;62818;49.394;8.686;2023-04-28T02:51:40;100034.91;;;12.78;94.32
60099;BME280;62818;49.394;8.686;2023-04-28T02:52:41;100036.81;;;12.84;94.72
60099;BME280;62818;49.394;8.686;2023-04-28T02:53:41;100038.53;;;13.05;93.52
60099;BME280;62818;49.394;8.686;2023-04-28T02:54:42;100032.84;;;13.14;91.14
60099;BME280;62818;49.394;8.686;2023-04-28T02:55:42;100039.38;;;13.05;90.89
60099;BME280;62818;49.394;8.686;2023-04-28T02:56:43;100037.13;;;13.15;91.05
60099;BME280;62818;49.394;8.686;2023-04-28T02:57:44;100035.03;;;13.04;92.51
60099;BME280;62818;49.394;8.686;2023-04-28T02:58:44;100040.03;;;13.20;91.38
60099;BME280;62818;49.394;8.686;2023-04-28T02:59:44;100036.34;;;13.15;89.95
60099;BME280;62818;49.394;8.686;2023-04-28T03:00:45;100042.34;;;13.50;89.26
60099;BME280;62818;49.394;8.686;2023-04-28T03:01:47;100042.97;;;13.52;87.81
60099;BME280;62818;49.394;8.686;2023-04-28T03:02:48;100044.16;;;13.36;87.67
60099;BME280;62818;49.394;8.686;2023-04-28T03:03:48;100041.25;;;13.24;89.00
60099;BME280;62818;49.394;8.686;2023-04-28T03:04:49;100033.25;;;13.11;91.38
60099;BME280;62818;49.394;8.686;2023-04-28T03:05:49;100024.94;;;13.41;90.17
60099;BME280;62818;49.394;8.686;2023-04-28T03:06:50;100022.47;;;13.32;89.58
60099;BME280;62818;49.394;8.686;2023-04-28T03:07:51;100019.75;;;13.06;91.14
60099;BME280;62818;49.394;8.686;2023-04-28T03:08:51;100014.66;;;13.37;90.98
60099;BME280;62818;49.394;8.686;2023-04-28T03:09:52;100016.31;;;13.32;90.65
60099;BME280;62818;49.394;8.686;2023-04-28T03:10:52;100014.69;;;13.51;89.52
60099;BME280;62818;49.394;8.686;2023-04-28T03:11:53;100004.25;;;13.56;88.94
60099;BME280;62818;49.394;8.686;2023-04-28T03:12:53;100009.13;;;13.13;91.58
60099;BME280;62818;49.394;8.686;2023-04-28T03:13:53;100007.47;;;13.18;92.42
60099;BME280;62818;49.394;8.686;2023-04-28T03:14:54;99999.97;;;13.48;91.52
60099;BME280;62818;49.394;8.686;2023-04-28T03:15:55;99992.78;;;13.62;90.27
60099;BME280;62818;49.394;8.686;2023-04-28T03:16:55;99992.56;;;13.30;92.90
60099;BME280;62818;49.394;8.686;2023-04-28T03:17:56;99990.09;;;13.29;93.89
60099;BME280;62818;49.394;8.686;2023-04-28T03:18:57;99992.34;;;13.32;94.22
60099;BME280;62818;49.394;8.686;2023-04-28T03:19:58;99990.06;;;13.16;97.51
60099;BME280;62818;49.394;8.686;2023-04-28T03:20:58;99990.47;;;13.06;100.00
60099;BME280;62818;49.394;8.686;2023-04-28T03:21:59;99997.81;;;13.11;100.00
60099;BME280;62818;49.394;8.686;2023-04-28T03:22:59;99987.94;;;12.98;100.00
60099;BME280;62818;49.394;8.686;2023-04-28T03:24:01;99988.47;;;13.41;100.00
60099;BME280;62818;49.394;8.686;2023-04-28T03:25:01;99982.31;;;13.27;100.00
60099;BME280;62818;49.394;8.686;2023-04-28T03:26:02;99980.72;;;12.79;100.00
60099;BME280;62818;49.394;8.686;2023-04-28T03:27:03;99981.28;;;12.68;100.00
60099;BME280;62818;49.394;8.686;2023-04-28T03:28:04;99977.56;;;13.10;100.00
60099;BME280;62818;49.394;8.686;2023-04-28T03:29:05;99974.34;;;13.41;100.00
60099;BME280;62818;49.394;8.686;2023-04-28T03:30:06;99972.91;;;13.45;97.70
60099;BME280;62818;49.394;8.686;2023-04-28T03:31:07;99977.63;;;13.43;96.91
60099;BME280;62818;49.394;8.686;2023-04-28T03:32:07;99969.63;;;13.36;96.17
60099;BME280;62818;49.394;8.686;2023-04-28T03:33:08;99981.09;;;13.36;95.08
60099;BME280;62818;49.394;8.686;2023-04-28T03:34:08;99972.25;;;13.16;96.07
60099;BME280;62818;49.394;8.686;2023-04-28T03:35:08;99972.91;;;13.31;96.51
60099;BME280;62818;49.394;8.686;2023-04-28T03:36:09;99971.16;;;13.04;100.00
60099;BME280;62818;49.394;8.686;2023-04-28T03:37:10;99975.16;;;12.74;100.00
60099;BME280;62818;49.394;8.686;2023-04-28T03:38:10;99971.31;;;12.83;100.00
60099;BME280;62818;49.394;8.686;2023-04-28T03:39:11;99974.53;;;13.19;100.00
60099;BME280;62818;49.394;8.686;2023-04-28T03:40:11;99975.75;;;13.10;100.00
60099;BME280;62818;49.394;8.686;2023-04-28T03:41:12;99971.47;;;13.29;100.00
60099;BME280;62818;49.394;8.686;2023-04-28T03:42:12;99977.78;;;13.15;100.00
60099;BME280;62818;49.394;8.686;2023-04-28T03:43:13;99976.47;;;12.98;100.00
60099;BME280;62818;49.394;8.686;2023-04-28T03:44:14;99978.13;;;12.99;100.00
60099;BME280;62818;49.394;8.686;2023-04-28T03:45:14;99990.81;;;12.97;100.00
60099;BME280;62818;49.394;8.686;2023-04-28T03:46:15;99991.38;;;12.79;100.00
60099;BME280;62818;49.394;8.686;2023-04-28T03:47:16;99989.88;;;12.70;100.00
60099;BME280;62818;49.394;8.686;2023-04-28T03:48:16;99993.59;;;12.76;100.00
60099;BME280;62818;49.394;8.686;2023-04-28T03:49:17;99978.44;;;12.70;100.00
60099;BME280;62818;49.394;8.686;2023-04-28T03:50:17;99974.13;;;12.62;100.00
60099;BME280;62818;49.394;8.686;2023-04-28T03:51:18;99978.69;;;12.40;100.00
60099;BME280;62818;49.394;8.686;2023-04-28T03:52:18;99982.94;;;12.28;100.00
60099;BME280;62818;49.394;8.686;2023-04-28T03:53:18;99992.25;;;12.52;100.00
60099;BME280;62818;49.394;8.686;2023-04-28T03:54:19;99993.94;;;12.59;100.00
60099;BME280;62818;49.394;8.686;2023-04-28T03:55:20;99996.00;;;12.64;100.00
60099;BME280;62818;49.394;8.686;2023-04-28T03:56:20;99991.97;;;12.81;100.00
60099;BME280;62818;49.394;8.686;2023-04-28T03:57:21;100000.84;;;13.01;100.00
60099;BME280;62818;49.394;8.686;2023-04-28T03:58:21;100001.94;;;13.13;100.00
60099;BME280;62818;49.394;8.686;2023-04-28T03:59:22;99991.28;;;13.13;100.00
60099;BME280;62818;49.394;8.686;2023-04-28T04:00:23;99992.50;;;13.11;100.00
60099;BME280;62818;49.394;8.686;2023-04-28T04:01:24;99993.06;;;13.00;100.00
60099;BME280;62818;49.394;8.686;2023-04-28T04:02:24;99986.78;;;13.07;100.00
60099;BME280;62818;49.394;8.686;2023-04-28T04:03:25;99987.44;;;13.29;100.00
60099;BME280;62818;49.394;8.686;2023-04-28T04:04:29;99996.63;;;13.26;100.00
60099;BME280;62818;49.394;8.686;2023-04-28T04:05:29;99985.34;;;13.11;100.00
60099;BME280;62818;49.394;8.686;2023-04-28T04:06:30;99994.59;;;13.28;100.00
60099;BME280;62818;49.394;8.686;2023-04-28T04:07:31;99988.75;;;12.99;100.00
60099;BME280;62818;49.394;8.686;2023-04-28T04:08:32;99989.28;;;12.75;100.00
60099;BME280;62818;49.394;8.686;2023-04-28T04:09:32;99999.09;;;12.74;100.00
60099;BME280;62818;49.394;8.686;2023-04-28T04:10:33;100001.53;;;12.69;100.00
60099;BME280;62818;49.394;8.686;2023-04-28T04:11:33;99999.72;;;12.76;100.00
60099;BME280;62818;49.394;8.686;2023-04-28T04:12:34;100006.34;;;12.93;100.00
60099;BME280;62818;49.394;8.686;2023-04-28T04:13:34;100011.25;;;12.90;100.00
60099;BME280;62818;49.394;8.686;2023-04-28T04:14:35;100012.06;;;12.90;100.00
60099;BME280;62818;49.394;8.686;2023-04-28T04:15:35;100003.84;;;12.85;100.00
60099;BME280;62818;49.394;8.686;2023-04-28T04:16:36;100009.19;;;12.85;100.00
60099;BME280;62818;49.394;8.686;2023-04-28T04:17:36;100009.66;;;12.95;100.00
60099;BME280;62818;49.394;8.686;2023-04-28T04:18:37;100010.09;;;13.05;100.00
60099;BME280;62818;49.394;8.686;2023-04-28T04:19:38;100009.63;;;12.89;100.00
60099;BME280;62818;49.394;8.686;2023-04-28T04:20:38;99994.81;;;12.73;100.00
60099;BME280;62818;49.394;8.686;2023-04-28T04:21:39;100008.44;;;12.57;100.00
60099;BME280;62818;49.394;8.686;2023-04-28T04:22:40;100007.03;;;12.61;100.00
60099;BME280;62818;49.394;8.686;2023-04-28T04:23:41;100007.38;;;12.99;100.00
60099;BME280;62818;49.394;8.686;2023-04-28T04:24:41;100010.53;;;13.15;100.00
60099;BME280;62818;49.394;8.686;2023-04-28T04:25:41;100018.00;;;12.92;100.00
60099;BME280;62818;49.394;8.686;2023-04-28T04:26:42;100007.56;;;12.91;100.00
60099;BME280;62818;49.394;8.686;2023-04-28T04:27:42;100009.72;;;13.08;100.00
60099;BME280;62818;49.394;8.686;2023-04-28T04:28:43;100008.06;;;13.07;100.00
60099;BME280;62818;49.394;8.686;2023-04-28T04:29:44;100013.94;;;12.96;100.00
60099;BME280;62818;49.394;8.686;2023-04-28T04:30:44;100015.53;;;12.84;100.00
60099;BME280;62818;49.394;8.686;2023-04-28T04:31:45;100008.72;;;12.69;100.00
60099;BME280;62818;49.394;8.686;2023-04-28T04:32:45;100007.34;;;12.45;100.00
60099;BME280;62818;49.394;8.686;2023-04-28T04:33:46;100002.31;;;12.56;100.00
60099;BME280;62818;49.394;8.686;2023-04-28T04:34:47;100002.56;;;12.68;100.00
60099;BME280;62818;49.394;8.686;2023-04-28T04:35:47;100002.75;;;12.26;100.00
60099;BME280;62818;49.394;8.686;2023-04-28T04:36:48;99998.22;;;12.20;100.00
60099;BME280;62818;49.394;8.686;2023-04-28T04:37:49;99997.81;;;12.23;100.00
60099;BME280;62818;49.394;8.686;2023-04-28T04:38:50;100004.28;;;12.41;100.00
60099;BME280;62818;49.394;8.686;2023-04-28T04:39:50;99999.16;;;12.40;100.00
60099;BME280;62818;49.394;8.686;2023-04-28T04:40:51;99999.31;;;12.32;100.00
60099;BME280;62818;49.394;8.686;2023-04-28T04:41:51;99998.25;;;12.26;100.00
60099;BME280;62818;49.394;8.686;2023-04-28T04:42:52;100000.72;;;12.28;100.00
60099;BME280;62818;49.394;8.686;2023-04-28T04:43:52;99991.50;;;12.24;100.00
60099;BME280;62818;49.394;8.686;2023-04-28T04:44:53;99997.00;;;12.22;100.00
60099;BME280;62818;49.394;8.686;2023-04-28T04:45:53;99993.81;;;12.33;100.00
60099;BME280;62818;49.394;8.686;2023-04-28T04:46:54;99996.34;;;12.48;100.00
60099;BME280;62818;49.394;8.686;2023-04-28T04:47:55;99997.97;;;12.42;100.00
60099;BME280;62818;49.394;8.686;2023-04-28T04:48:55;99995.72;;;12.46;100.00
60099;BME280;62818;49.394;8.686;2023-04-28T04:49:56;100001.88;;;12.53;100.00
60099;BME280;62818;49.394;8.686;2023-04-28T04:50:56;99994.63;;;12.40;100.00
60099;BME280;62818;49.394;8.686;2023-04-28T04:51:57;99995.94;;;12.51;100.00
60099;BME280;62818;49.394;8.686;2023-04-28T04:52:58;100002.94;;;12.65;100.00
60099;BME280;62818;49.394;8.686;2023-04-28T04:53:58;100006.13;;;12.47;100.00
60099;BME280;62818;49.394;8.686;2023-04-28T04:54:59;99998.50;;;12.31;100.00
60099;BME280;62818;49.394;8.686;2023-04-28T04:55:59;99995.81;;;12.25;100.00
60099;BME280;62818;49.394;8.686;2023-04-28T04:57:00;100002.63;;;12.40;100.00
60099;BME280;62818;49.394;8.686;2023-04-28T04:58:01;100007.81;;;12.55;100.00
60099;BME280;62818;49.394;8.686;2023-04-28T04:59:02;100004.06;;;12.43;100.00
60099;BME280;62818;49.394;8.686;2023-04-28T05:00:03;100004.03;;;12.36;100.00
60099;BME280;62818;49.394;8.686;2023-04-28T05:01:04;100006.31;;;12.39;100.00
60099;BME280;62818;49.394;8.686;2023-04-28T05:02:05;99997.47;;;12.32;100.00
60099;BME280;62818;49.394;8.686;2023-04-28T05:03:05;99989.69;;;12.31;100.00
60099;BME280;62818;49.394;8.686;2023-04-28T05:04:06;99991.78;;;12.35;100.00
60099;BME280;62818;49.394;8.686;2023-04-28T05:05:07;99986.06;;;12.45;100.00
60099;BME280;62818;49.394;8.686;2023-04-28T05:06:08;99981.16;;;12.35;100.00
60099;BME280;62818;49.394;8.686;2023-04-28T05:07:08;99989.75;;;12.37;100.00
60099;BME280;62818;49.394;8.686;2023-04-28T05:08:09;99984.94;;;12.20;100.00
60099;BME280;62818;49.394;8.686;2023-04-28T05:09:10;99983.59;;;12.37;100.00
60099;BME280;62818;49.394;8.686;2023-04-28T05:10:11;99985.81;;;12.27;100.00
60099;BME280;62818;49.394;8.686;2023-04-28T05:11:11;99988.53;;;12.40;100.00
60099;BME280;62818;49.394;8.686;2023-04-28T05:12:12;99984.41;;;12.37;100.00
60099;BME280;62818;49.394;8.686;2023-04-28T05:13:13;99981.34;;;12.40;100.00
60099;BME280;62818;49.394;8.686;2023-04-28T05:14:13;99991.31;;;12.32;100.00
60099;BME280;62818;49.394;8.686;2023-04-28T05:15:14;99983.19;;;12.33;100.00
60099;BME280;62818;49.394;8.686;2023-04-28T05:16:15;99982.59;;;12.38;100.00
60099;BME280;62818;49.394;8.686;2023-04-28T05:17:15;99982.41;;;12.46;100.00
60099;BME280;62818;49.394;8.686;2023-04-28T05:18:16;99992.66;;;12.49;100.00